Time;durP1;ratioP1;P1;durP2;ratioP2;P2;SDS_P1;SDS_P2;PMS_P1;PMS_P2;Temp;Humidity;BMP_temperature;BMP_pressure;BME280_temperature;BME280_humidity;BME280_pressure;Samples;Min_cycle;Max_cycle;Signal;HPM_P1;HPM_P2
2024/03/11 00:00:17;;;;;;;0.30;0.30;;;;;;;6.89;100.00;97441.47;5054726;28;20052;-59
2024/03/11 00:02:44;;;;;;;0.30;0.30;;;;;;;6.87;100.00;97442.81;5050081;28;20040;-59
2024/03/11 00:05:12;;;;;;;0.30;0.30;;;;;;;6.76;100.00;97443.81;5049093;28;20045;-58
2024/03/11 00:07:40;;;;;;;0.25;0.25;;;;;;;6.77;100.00;97434.78;5060332;28;20372;-59
2024/03/11 00:10:11;;;;;;;0.38;0.38;;;;;;;6.74;100.00;97440.63;5049268;28;20111;-59
2024/03/11 00:12:40;;;;;;;0.30;0.30;;;;;;;6.79;100.00;97445.97;5057981;28;20045;-59
2024/03/11 00:15:09;;;;;;;0.40;0.40;;;;;;;6.90;100.00;97444.94;5046997;28;20648;-59
2024/03/11 00:17:37;;;;;;;0.30;0.30;;;;;;;6.96;100.00;97443.88;5050562;28;20053;-58
2024/03/11 00:20:06;;;;;;;0.30;0.30;;;;;;;7.03;100.00;97441.78;5051066;28;20049;-59
2024/03/11 00:22:36;;;;;;;0.30;0.30;;;;;;;7.09;100.00;97437.28;5053680;28;20124;-58
2024/03/11 00:25:04;;;;;;;0.30;0.30;;;;;;;7.06;100.00;97448.44;5052394;28;20057;-58
2024/03/11 00:27:31;;;;;;;0.30;0.30;;;;;;;7.03;100.00;97451.63;5057272;28;20049;-59
2024/03/11 00:29:58;;;;;;;0.30;0.30;;;;;;;7.05;100.00;97442.31;5083129;28;20123;-58
2024/03/11 00:32:25;;;;;;;0.30;0.30;;;;;;;7.12;100.00;97448.19;5057668;28;20044;-59
2024/03/11 00:34:54;;;;;;;0.30;0.30;;;;;;;7.06;100.00;97443.94;5052205;28;20045;-58
2024/03/11 00:37:21;;;;;;;0.25;0.25;;;;;;;7.05;100.00;97450.31;5053669;28;20128;-59
2024/03/11 00:39:48;;;;;;;0.28;0.28;;;;;;;7.03;100.00;97459.63;5049698;28;20045;-58
2024/03/11 00:42:18;;;;;;;0.40;0.40;;;;;;;7.08;100.00;97452.44;5050105;28;20047;-58
2024/03/11 00:44:46;;;;;;;0.30;0.30;;;;;;;7.10;100.00;97458.31;5047793;28;20460;-59
2024/03/11 00:47:13;;;;;;;0.30;0.30;;;;;;;7.13;100.00;97454.31;5055307;28;20476;-59
2024/03/11 00:49:41;;;;;;;0.20;0.20;;;;;;;7.18;100.00;97461.53;5047992;28;20059;-59
2024/03/11 00:52:10;;;;;;;0.25;0.25;;;;;;;7.20;100.00;97473.53;5053735;28;20119;-59
2024/03/11 00:54:38;;;;;;;0.30;0.30;;;;;;;7.19;100.00;97479.09;5049126;28;20125;-59
2024/03/11 00:57:06;;;;;;;0.30;0.30;;;;;;;7.18;100.00;97480.19;5053725;28;20068;-58
2024/03/11 00:59:33;;;;;;;0.30;0.30;;;;;;;7.15;100.00;97478.03;5056561;28;20449;-59
2024/03/11 01:02:00;;;;;;;0.32;0.32;;;;;;;7.12;100.00;97484.69;5055074;28;20169;-58
2024/03/11 01:04:27;;;;;;;0.20;0.20;;;;;;;7.03;100.00;97481.72;5054837;28;20127;-59
2024/03/11 01:06:55;;;;;;;0.20;0.20;;;;;;;7.06;100.00;97481.22;5053793;28;20037;-59
2024/03/11 01:09:23;;;;;;;0.35;0.35;;;;;;;7.08;100.00;97488.94;5058926;28;20044;-58
2024/03/11 01:11:50;;;;;;;0.20;0.20;;;;;;;7.08;100.00;97486.28;5055489;28;20641;-58
2024/03/11 01:14:18;;;;;;;0.30;0.30;;;;;;;6.97;100.00;97489.97;5048887;28;20136;-59
2024/03/11 01:16:46;;;;;;;0.30;0.30;;;;;;;7.04;100.00;97494.00;5052396;28;20036;-59
2024/03/11 01:19:18;;;;;;;0.30;0.30;;;;;;;7.02;100.00;97496.13;5046434;28;20041;-59
2024/03/11 01:21:46;;;;;;;0.30;0.30;;;;;;;7.04;100.00;97493.19;5050094;28;20045;-59
2024/03/11 01:24:13;;;;;;;0.30;0.30;;;;;;;7.10;100.00;97500.94;5046110;28;20045;-59
2024/03/11 01:26:47;;;;;;;0.30;0.30;;;;;;;7.02;100.00;97496.13;5037757;28;20514;-59
2024/03/11 01:29:15;;;;;;;0.20;0.20;;;;;;;7.00;100.00;97498.25;5054240;28;20715;-59
2024/03/11 01:31:43;;;;;;;0.20;0.20;;;;;;;7.08;100.00;97496.94;5052347;28;20423;-58
2024/03/11 01:34:10;;;;;;;0.25;0.25;;;;;;;7.05;100.00;97500.91;5049105;28;20068;-59
2024/03/11 01:36:37;;;;;;;0.30;0.30;;;;;;;7.02;100.00;97501.44;5050157;28;20127;-59
2024/03/11 01:39:08;;;;;;;0.30;0.30;;;;;;;7.02;100.00;97506.78;5048300;28;20128;-59
2024/03/11 01:41:36;;;;;;;0.30;0.30;;;;;;;6.99;100.00;97512.63;5051870;28;20091;-58
2024/03/11 01:44:06;;;;;;;0.30;0.30;;;;;;;7.08;100.00;97515.56;5049533;28;20086;-59
2024/03/11 01:46:33;;;;;;;0.20;0.20;;;;;;;7.10;100.00;97513.47;5048406;28;20047;-59
2024/03/11 01:49:00;;;;;;;0.30;0.30;;;;;;;6.98;100.00;97495.03;5049660;28;20048;-59
2024/03/11 01:51:28;;;;;;;0.35;0.35;;;;;;;7.07;100.00;97495.34;5056043;28;20422;-58
2024/03/11 01:53:55;;;;;;;0.32;0.32;;;;;;;6.98;100.00;97494.25;5050071;28;20620;-59
2024/03/11 01:56:22;;;;;;;0.30;0.30;;;;;;;7.06;100.00;97497.22;5045132;28;20128;-59
2024/03/11 01:58:49;;;;;;;0.38;0.38;;;;;;;7.06;100.00;97510.53;5050853;28;20542;-58
2024/03/11 02:01:18;;;;;;;0.25;0.25;;;;;;;7.04;100.00;97496.66;5049910;28;20041;-58
2024/03/11 02:03:45;;;;;;;0.30;0.30;;;;;;;6.92;100.00;97506.75;5054135;28;20139;-58
2024/03/11 02:06:12;;;;;;;0.30;0.30;;;;;;;6.90;100.00;97503.53;5056269;28;20045;-58
2024/03/11 02:08:39;;;;;;;0.30;0.30;;;;;;;6.87;100.00;97496.88;5055319;28;20068;-59
2024/03/11 02:11:07;;;;;;;0.32;0.32;;;;;;;6.92;100.00;97496.09;5047928;28;20163;-59
2024/03/11 02:13:34;;;;;;;0.30;0.30;;;;;;;6.92;100.00;97498.75;5049389;28;20540;-58
2024/03/11 02:16:01;;;;;;;0.30;0.30;;;;;;;6.90;100.00;97500.88;5051369;28;20075;-58
2024/03/11 02:18:30;;;;;;;0.20;0.20;;;;;;;6.87;100.00;97496.88;5056258;28;20048;-58
2024/03/11 02:20:57;;;;;;;0.30;0.30;;;;;;;6.91;100.00;97497.13;5044651;28;20450;-59
2024/03/11 02:23:25;;;;;;;0.20;0.20;;;;;;;6.86;100.00;97497.13;5047288;28;20037;-59
2024/03/11 02:25:54;;;;;;;0.30;0.30;;;;;;;6.86;100.00;97503.25;5053678;28;21139;-59
2024/03/11 02:28:21;;;;;;;0.35;0.35;;;;;;;6.66;100.00;97498.66;5051896;28;20103;-58
2024/03/11 02:30:48;;;;;;;0.30;0.30;;;;;;;6.77;100.00;97504.81;5052545;28;20041;-58
2024/03/11 02:33:15;;;;;;;0.30;0.30;;;;;;;6.78;100.00;97497.63;5051706;28;20045;-59
2024/03/11 02:35:45;;;;;;;0.40;0.40;;;;;;;6.82;100.00;97506.72;5048356;28;20632;-59
2024/03/11 02:38:13;;;;;;;0.40;0.40;;;;;;;6.75;100.00;97506.94;5045537;28;20505;-59
2024/03/11 02:40:43;;;;;;;0.30;0.30;;;;;;;6.72;100.00;97507.47;5051626;28;20037;-58
2024/03/11 02:43:10;;;;;;;0.30;0.30;;;;;;;6.73;100.00;97506.38;5047377;28;20056;-59
2024/03/11 02:45:39;;;;;;;0.38;0.38;;;;;;;6.68;100.00;97511.69;5044795;28;20072;-58
2024/03/11 02:48:07;;;;;;;0.50;0.50;;;;;;;6.72;100.00;97512.78;5047336;28;20690;-58
2024/03/11 02:50:35;;;;;;;0.30;0.30;;;;;;;6.72;100.00;97512.00;5049537;28;20672;-58
2024/03/11 02:53:02;;;;;;;0.40;0.40;;;;;;;6.59;100.00;97519.38;5051229;28;20053;-59
2024/03/11 02:55:29;;;;;;;0.30;0.30;;;;;;;6.62;100.00;97520.72;5042997;28;20513;-58
2024/03/11 02:57:57;;;;;;;0.30;0.30;;;;;;;6.70;100.00;97521.00;5050663;28;20555;-58
2024/03/11 03:00:24;;;;;;;0.30;0.30;;;;;;;6.64;100.00;97521.25;5050782;28;20036;-58
2024/03/11 03:02:52;;;;;;;0.40;0.40;;;;;;;6.66;100.00;97519.94;5054123;28;20052;-58
2024/03/11 03:05:19;;;;;;;0.40;0.40;;;;;;;6.71;100.00;97521.81;5048521;28;20067;-58
2024/03/11 03:07:47;;;;;;;0.43;0.43;;;;;;;6.69;100.00;97530.06;5053373;28;20055;-58
2024/03/11 03:10:14;;;;;;;0.40;0.40;;;;;;;6.63;100.00;97528.44;5049349;28;20045;-59
2024/03/11 03:12:41;;;;;;;0.30;0.30;;;;;;;6.74;100.00;97523.97;5054115;28;20526;-59
2024/03/11 03:15:11;;;;;;;0.40;0.40;;;;;;;6.74;100.00;97531.13;5047186;28;20054;-58
2024/03/11 03:17:39;;;;;;;0.38;0.38;;;;;;;6.69;100.00;97535.41;5056037;28;20032;-58
2024/03/11 03:20:09;;;;;;;0.32;0.32;;;;;;;6.64;100.00;97527.38;5044439;28;20052;-59
2024/03/11 03:22:36;;;;;;;0.30;0.30;;;;;;;6.59;100.00;97530.03;5056257;28;20044;-58
2024/03/11 03:25:04;;;;;;;0.30;0.30;;;;;;;6.60;100.00;97530.81;5047990;28;20123;-59
2024/03/11 03:27:31;;;;;;;0.40;0.40;;;;;;;6.62;100.00;97534.03;5051697;28;20546;-58
2024/03/11 03:29:58;;;;;;;0.30;0.30;;;;;;;6.57;100.00;97536.66;5048120;28;20136;-58
2024/03/11 03:32:27;;;;;;;0.35;0.35;;;;;;;6.55;100.00;97542.22;5050802;28;20435;-58
2024/03/11 03:34:54;;;;;;;0.30;0.30;;;;;;;6.51;100.00;97549.13;5050759;28;20053;-58
2024/03/11 03:37:22;;;;;;;0.32;0.32;;;;;;;6.48;100.00;97539.00;5044002;28;20053;-57
2024/03/11 03:39:49;;;;;;;0.30;0.30;;;;;;;6.32;100.00;97551.41;5049880;28;20036;-59
2024/03/11 03:42:16;;;;;;;0.40;0.40;;;;;;;6.41;100.00;97549.06;5056094;28;20382;-59
2024/03/11 03:44:43;;;;;;;0.22;0.22;;;;;;;6.29;100.00;97551.94;5085300;28;20080;-59
2024/03/11 03:47:11;;;;;;;0.30;0.30;;;;;;;6.36;100.00;97549.81;5050728;28;20144;-59
2024/03/11 03:49:40;;;;;;;0.40;0.40;;;;;;;6.28;100.00;97549.50;5048604;28;20087;-59
2024/03/11 03:52:07;;;;;;;0.40;0.40;;;;;;;6.20;100.00;97551.59;5055911;28;20472;-58
2024/03/11 03:54:34;;;;;;;0.40;0.40;;;;;;;6.34;100.00;97559.13;5056504;28;21710;-58
2024/03/11 03:57:01;;;;;;;0.30;0.30;;;;;;;6.33;100.00;97558.31;5052838;28;20055;-58
2024/03/11 03:59:28;;;;;;;0.32;0.32;;;;;;;6.15;100.00;97558.72;5053484;28;20371;-59
2024/03/11 04:01:56;;;;;;;0.50;0.50;;;;;;;6.13;100.00;97558.97;5053163;28;20491;-58
2024/03/11 04:04:22;;;;;;;0.30;0.30;;;;;;;6.17;100.00;97557.41;5055484;28;20048;-58
2024/03/11 04:06:51;;;;;;;0.40;0.40;;;;;;;6.16;100.00;97563.78;5056285;28;20052;-58
2024/03/11 04:09:18;;;;;;;0.40;0.40;;;;;;;6.06;100.00;97571.69;5047291;28;20081;-59
2024/03/11 04:11:45;;;;;;;0.30;0.30;;;;;;;6.04;100.00;97573.78;5042237;28;20138;-58
2024/03/11 04:14:12;;;;;;;0.40;0.40;;;;;;;5.93;100.00;97572.88;5051291;28;20057;-58
2024/03/11 04:16:40;;;;;;;0.40;0.40;;;;;;;6.10;100.00;97586.09;5050916;28;20116;-59
2024/03/11 04:19:08;;;;;;;0.40;0.40;;;;;;;6.02;100.00;97573.25;5055947;28;20040;-58
2024/03/11 04:21:37;;;;;;;0.40;0.40;;;;;;;5.92;100.00;97583.78;5082448;28;20126;-58
2024/03/11 04:24:06;;;;;;;0.40;0.40;;;;;;;6.05;100.00;97584.19;5057945;28;20033;-59
2024/03/11 04:26:33;;;;;;;0.40;0.40;;;;;;;5.95;100.00;97584.09;5061121;28;20036;-58
2024/03/11 04:29:01;;;;;;;0.40;0.40;;;;;;;5.98;100.00;97588.09;5053028;28;20054;-58
2024/03/11 04:31:28;;;;;;;0.40;0.40;;;;;;;5.87;100.00;97589.06;5048589;28;21268;-58
2024/03/11 04:33:56;;;;;;;0.30;0.30;;;;;;;5.92;100.00;97589.91;5048114;28;20041;-58
2024/03/11 04:36:23;;;;;;;0.38;0.38;;;;;;;5.94;100.00;97592.31;5060288;28;20442;-59
2024/03/11 04:38:50;;;;;;;0.40;0.40;;;;;;;5.90;100.00;97599.19;5051927;28;20413;-58
2024/03/11 04:41:20;;;;;;;0.40;0.40;;;;;;;5.87;100.00;97597.03;5058629;28;20131;-59
2024/03/11 04:43:47;;;;;;;0.30;0.30;;;;;;;5.82;100.00;97593.25;5050632;28;20055;-59
2024/03/11 04:46:14;;;;;;;0.30;0.30;;;;;;;5.95;100.00;97602.72;5055478;28;20069;-59
2024/03/11 04:48:41;;;;;;;0.40;0.40;;;;;;;5.98;100.00;97601.41;5049435;28;20041;-59
2024/03/11 04:51:08;;;;;;;0.30;0.30;;;;;;;6.06;100.00;97600.94;5058227;28;20055;-58
2024/03/11 04:53:36;;;;;;;0.40;0.40;;;;;;;6.01;100.00;97592.91;5046374;28;20407;-58
2024/03/11 04:56:03;;;;;;;0.40;0.40;;;;;;;5.96;100.00;97606.16;5050113;28;20048;-58
2024/03/11 04:58:31;;;;;;;0.30;0.30;;;;;;;6.05;100.00;97602.00;5047101;28;20131;-59
2024/03/11 05:00:59;;;;;;;0.40;0.40;;;;;;;6.07;100.00;97613.19;5057966;28;20102;-58
2024/03/11 05:03:26;;;;;;;0.40;0.40;;;;;;;6.00;100.00;97610.72;5050828;28;20056;-59
2024/03/11 05:05:53;;;;;;;0.38;0.38;;;;;;;5.94;100.00;97608.28;5062522;28;20055;-59
2024/03/11 05:08:20;;;;;;;0.45;0.45;;;;;;;6.07;100.00;97607.88;5054073;28;20128;-58
2024/03/11 05:10:48;;;;;;;0.40;0.40;;;;;;;6.08;100.00;97609.47;5045614;28;20628;-59
2024/03/11 05:13:15;;;;;;;0.30;0.30;;;;;;;6.01;100.00;97615.00;5048719;28;20403;-58
2024/03/11 05:15:47;;;;;;;0.30;0.30;;;;;;;5.95;100.00;97612.56;5050650;28;20037;-58
2024/03/11 05:18:15;;;;;;;0.40;0.40;;;;;;;5.94;100.00;97610.94;5048576;28;20044;-59
2024/03/11 05:20:42;;;;;;;0.22;0.22;;;;;;;5.84;100.00;97615.09;5048599;28;20032;-58
2024/03/11 05:23:09;;;;;;;0.43;0.43;;;;;;;5.92;100.00;97610.38;5046427;28;20056;-60
2024/03/11 05:25:36;;;;;;;0.40;0.40;;;;;;;5.94;100.00;97618.91;5050959;28;20049;-59
2024/03/11 05:28:03;;;;;;;0.40;0.40;;;;;;;5.98;100.00;97615.50;5054003;28;20355;-59
2024/03/11 05:30:30;;;;;;;0.40;0.40;;;;;;;6.01;100.00;97625.63;5052758;28;20049;-59
2024/03/11 05:33:01;;;;;;;0.40;0.40;;;;;;;5.94;100.00;97629.53;5051941;28;20103;-59
2024/03/11 05:35:28;;;;;;;;;;;;;;;5.94;100.00;97627.72;5047721;28;20060;-59
2024/03/11 05:37:56;;;;;;;0.40;0.40;;;;;;;5.79;100.00;97631.00;5050727;28;19927;-58
2024/03/11 05:40:24;;;;;;;0.30;0.30;;;;;;;5.86;100.00;97630.78;5050281;28;20052;-58
2024/03/11 05:42:51;;;;;;;0.43;0.43;;;;;;;5.91;100.00;97638.00;5052133;28;20055;-58
2024/03/11 05:45:19;;;;;;;0.30;0.30;;;;;;;5.91;100.00;97640.66;5046109;28;20051;-59
2024/03/11 05:47:46;;;;;;;0.40;0.40;;;;;;;5.93;100.00;97641.22;5054905;28;20087;-58
2024/03/11 05:50:17;;;;;;;0.30;0.30;;;;;;;5.80;100.00;97645.88;5049423;28;20044;-59
2024/03/11 05:52:45;;;;;;;0.30;0.30;;;;;;;5.59;100.00;97649.34;5053942;28;20106;-59
2024/03/11 05:55:12;;;;;;;0.30;0.30;;;;;;;5.67;100.00;97650.78;5048925;28;20122;-58
2024/03/11 05:57:40;;;;;;;0.40;0.40;;;;;;;5.61;100.00;97653.38;5051703;28;20052;-59
2024/03/11 06:00:10;;;;;;;0.40;0.40;;;;;;;5.59;100.00;97650.19;5050678;28;20044;-58
2024/03/11 06:02:37;;;;;;;0.40;0.40;;;;;;;5.53;100.00;97658.34;5047423;28;20045;-58
2024/03/11 06:05:06;;;;;;;0.30;0.30;;;;;;;5.77;100.00;97661.53;5048129;28;20495;-57
2024/03/11 06:07:35;;;;;;;0.47;0.47;;;;;;;5.60;100.00;97656.28;5043684;28;20209;-57
2024/03/11 06:10:02;;;;;;;0.40;0.40;;;;;;;5.38;100.00;97654.44;5042615;28;20549;-58
2024/03/11 06:12:29;;;;;;;0.40;0.40;;;;;;;5.55;100.00;97659.69;5046356;28;20048;-58
2024/03/11 06:14:56;;;;;;;0.40;0.40;;;;;;;5.49;100.00;97659.88;5058829;28;20040;-58
2024/03/11 06:17:23;;;;;;;0.40;0.40;;;;;;;5.53;100.00;97661.00;5049399;28;20053;-58
2024/03/11 06:19:50;;;;;;;0.40;0.40;;;;;;;5.50;100.00;97669.47;5055930;28;20131;-57
2024/03/11 06:22:17;;;;;;;0.40;0.40;;;;;;;5.50;100.00;97672.13;5049682;28;20051;-58
2024/03/11 06:24:46;;;;;;;0.40;0.40;;;;;;;5.63;100.00;97674.41;5045970;28;20060;-57
2024/03/11 06:27:14;;;;;;;0.40;0.40;;;;;;;5.70;100.00;97677.66;5053591;28;20068;-58
2024/03/11 06:29:42;;;;;;;0.47;0.47;;;;;;;5.73;100.00;97681.69;5051520;28;20047;-58
2024/03/11 06:32:09;;;;;;;0.50;0.50;;;;;;;5.81;100.00;97684.69;5060870;28;20512;-58
2024/03/11 06:34:37;;;;;;;0.30;0.30;;;;;;;5.92;100.00;97682.97;5064405;28;20051;-58
2024/03/11 06:37:04;;;;;;;0.35;0.35;;;;;;;6.06;100.00;97680.72;5048735;28;20033;-58
2024/03/11 06:39:32;;;;;;;0.40;0.40;;;;;;;5.99;100.00;97696.06;5063804;28;20571;-58
2024/03/11 06:42:01;;;;;;;0.40;0.40;;;;;;;5.94;100.00;97691.53;5056733;28;20147;-58
2024/03/11 06:44:28;;;;;;;0.40;0.40;;;;;;;6.01;100.00;97696.63;5053465;28;20094;-58
2024/03/11 06:46:57;;;;;;;0.50;0.50;;;;;;;5.81;100.00;97697.97;5056896;28;20048;-58
2024/03/11 06:49:25;;;;;;;0.40;0.40;;;;;;;5.80;100.00;97696.41;5056656;28;20102;-58
2024/03/11 06:51:52;;;;;;;0.40;0.40;;;;;;;5.91;100.00;97699.16;5053512;28;20162;-58
2024/03/11 06:54:20;;;;;;;0.40;0.40;;;;;;;5.86;100.00;97702.56;5056285;28;20049;-58
2024/03/11 06:56:47;;;;;;;0.30;0.30;;;;;;;5.86;100.00;97707.09;5060461;28;20101;-58
2024/03/11 06:59:16;;;;;;;0.32;0.32;;;;;;;5.91;100.00;97709.78;5054415;28;20045;-58
2024/03/11 07:01:43;;;;;;;0.40;0.40;;;;;;;5.86;100.00;97707.88;5055367;28;20053;-58
2024/03/11 07:04:11;;;;;;;0.40;0.40;;;;;;;5.90;100.00;97713.53;5048900;28;20052;-58
2024/03/11 07:06:39;;;;;;;0.40;0.40;;;;;;;5.92;100.00;97716.75;5049788;28;20041;-58
2024/03/11 07:09:07;;;;;;;0.35;0.35;;;;;;;5.87;100.00;97719.34;5047341;28;20045;-58
2024/03/11 07:11:34;;;;;;;0.40;0.40;;;;;;;5.90;100.00;97724.16;5053890;28;20492;-58
2024/03/11 07:14:02;;;;;;;0.40;0.40;;;;;;;5.92;100.00;97727.38;5053247;28;20176;-59
2024/03/11 07:16:31;;;;;;;0.40;0.40;;;;;;;5.86;100.00;97723.03;5047875;28;20795;-58
2024/03/11 07:18:59;;;;;;;0.40;0.40;;;;;;;5.91;100.00;97725.75;5051437;28;20119;-58
2024/03/11 07:21:28;;;;;;;0.35;0.35;;;;;;;5.97;100.00;97730.91;5055872;28;20076;-58
2024/03/11 07:23:56;;;;;;;0.50;0.50;;;;;;;5.89;100.00;97731.34;5060481;28;20047;-58
2024/03/11 07:26:23;;;;;;;0.40;0.40;;;;;;;5.96;100.00;97739.13;5048799;28;20049;-58
2024/03/11 07:28:50;;;;;;;0.40;0.40;;;;;;;5.92;100.00;97738.81;5056002;28;20605;-58
2024/03/11 07:31:17;;;;;;;0.35;0.35;;;;;;;5.91;100.00;97741.72;5054136;28;20055;-58
2024/03/11 07:33:48;;;;;;;0.40;0.40;;;;;;;6.03;100.00;97745.06;5055896;28;20475;-58
2024/03/11 07:36:15;;;;;;;;;;;;;;;6.07;100.00;97751.50;5053770;28;20047;-58
2024/03/11 07:38:43;;;;;;;0.30;0.30;;;;;;;6.17;100.00;97750.81;5061898;28;21362;-58
2024/03/11 07:41:10;;;;;;;0.38;0.38;;;;;;;6.14;100.00;97757.44;5060464;28;20045;-58
2024/03/11 07:43:38;;;;;;;0.30;0.30;;;;;;;6.25;100.00;97756.50;5065882;28;20391;-58
2024/03/11 07:46:05;;;;;;;0.40;0.40;;;;;;;6.28;100.00;97759.72;5057186;28;20041;-58
2024/03/11 07:48:32;;;;;;;0.38;0.38;;;;;;;6.35;100.00;97768.31;5055354;28;20430;-58
2024/03/11 07:51:01;;;;;;;0.40;0.40;;;;;;;6.34;100.00;97767.50;5058676;28;20033;-58
2024/03/11 07:53:28;;;;;;;0.30;0.30;;;;;;;6.32;100.00;97766.16;5060285;28;20056;-58
2024/03/11 07:55:55;;;;;;;0.30;0.30;;;;;;;6.39;100.00;97769.38;5054433;28;20059;-58
2024/03/11 07:58:23;;;;;;;0.35;0.35;;;;;;;6.37;100.00;97777.63;5052679;28;20053;-58
2024/03/11 08:00:51;;;;;;;0.40;0.40;;;;;;;6.42;100.00;97779.56;5055463;28;20141;-58
2024/03/11 08:03:19;;;;;;;0.40;0.40;;;;;;;6.46;100.00;97780.63;5060657;28;20055;-58
2024/03/11 08:05:46;;;;;;;0.30;0.30;;;;;;;6.45;100.00;97795.00;5059431;28;20041;-58
2024/03/11 08:08:17;;;;;;;0.35;0.35;;;;;;;6.59;100.00;97795.41;5052188;28;20518;-58
2024/03/11 08:10:50;;;;;;;0.40;0.40;;;;;;;6.55;100.00;97789.78;5053562;28;20045;-58
2024/03/11 08:13:18;;;;;;;0.32;0.32;;;;;;;6.65;100.00;97792.56;5054852;28;20063;-58
2024/03/11 08:15:45;;;;;;;0.35;0.35;;;;;;;6.70;100.00;97799.78;5047147;28;20123;-59
2024/03/11 08:18:14;;;;;;;0.30;0.30;;;;;;;6.71;100.00;97798.72;5048109;28;20033;-58
2024/03/11 08:20:41;;;;;;;0.40;0.40;;;;;;;6.56;100.00;97798.56;5054594;28;20080;-58
2024/03/11 08:23:09;;;;;;;0.40;0.40;;;;;;;6.72;100.00;97796.88;5053133;28;20139;-58
2024/03/11 08:25:44;;;;;;;0.40;0.40;;;;;;;6.73;100.00;97806.47;5045137;28;20045;-58
2024/03/11 08:28:14;;;;;;;0.32;0.32;;;;;;;6.85;100.00;97815.91;5047611;28;20206;-58
2024/03/11 08:30:41;;;;;;;;;;;;;;;7.02;100.00;97812.31;5047687;28;20098;-58
2024/03/11 08:33:09;;;;;;;0.40;0.40;;;;;;;6.96;100.00;97821.31;5057811;28;20005;-58
2024/03/11 08:35:38;;;;;;;0.40;0.40;;;;;;;6.98;100.00;97824.53;5054496;28;20060;-58
2024/03/11 08:38:05;;;;;;;0.40;0.40;;;;;;;6.87;100.00;97819.13;5055790;28;20049;-58
2024/03/11 08:40:32;;;;;;;0.40;0.40;;;;;;;7.06;100.00;97816.91;5046232;28;20044;-58
2024/03/11 08:43:01;;;;;;;0.40;0.40;;;;;;;6.99;100.00;97824.28;5062093;28;20114;-58
2024/03/11 08:45:32;;;;;;;0.30;0.30;;;;;;;7.06;100.00;97822.22;5053087;28;20044;-58
2024/03/11 08:47:59;;;;;;;0.38;0.38;;;;;;;6.94;100.00;97828.75;5057766;28;20040;-58
2024/03/11 08:50:26;;;;;;;0.30;0.30;;;;;;;7.13;100.00;97830.00;5084843;28;20041;-58
2024/03/11 08:52:53;;;;;;;0.22;0.22;;;;;;;7.17;100.00;97832.97;5056566;28;20037;-58
2024/03/11 08:55:20;;;;;;;0.40;0.40;;;;;;;7.24;100.00;97838.84;5048253;28;20049;-58
2024/03/11 08:57:49;;;;;;;0.35;0.35;;;;;;;7.11;100.00;97835.59;5049351;28;22044;-58
2024/03/11 09:00:18;;;;;;;0.30;0.30;;;;;;;7.21;100.00;97834.84;5054854;28;20373;-59
2024/03/11 09:02:45;;;;;;;0.30;0.30;;;;;;;7.32;100.00;97846.41;5056045;28;20491;-58
2024/03/11 09:05:15;;;;;;;0.30;0.30;;;;;;;7.27;100.00;97849.84;5052711;28;22230;-58
2024/03/11 09:07:45;;;;;;;0.40;0.40;;;;;;;7.12;100.00;97853.16;5048981;28;20041;-58
2024/03/11 09:10:14;;;;;;;0.40;0.40;;;;;;;7.29;100.00;97854.91;5058100;28;20506;-58
2024/03/11 09:12:42;;;;;;;0.30;0.30;;;;;;;7.20;100.00;97857.22;5058351;28;20670;-58
2024/03/11 09:15:15;;;;;;;0.30;0.30;;;;;;;7.40;100.00;97869.91;5058644;28;20049;-57
2024/03/11 09:17:44;;;;;;;0.30;0.30;;;;;;;7.33;100.00;97872.00;5048146;28;20040;-58
2024/03/11 09:20:15;;;;;;;0.30;0.30;;;;;;;7.11;100.00;97867.56;5052526;28;20045;-57
2024/03/11 09:22:45;;;;;;;0.30;0.30;;;;;;;7.26;100.00;97879.38;5056199;28;20044;-58
2024/03/11 09:25:17;;;;;;;0.40;0.40;;;;;;;7.26;100.00;97874.88;5042015;28;20049;-60
2024/03/11 09:27:48;;;;;;;0.40;0.40;;;;;;;7.10;100.00;97879.25;5055955;28;20048;-57
2024/03/11 09:30:16;;;;;;;0.20;0.20;;;;;;;7.29;100.00;97893.03;5052732;28;20048;-58
2024/03/11 09:32:45;;;;;;;0.30;0.30;;;;;;;7.23;100.00;97901.22;5063262;28;20065;-58
2024/03/11 09:35:16;;;;;;;0.32;0.32;;;;;;;7.29;100.00;97902.91;5057194;28;20056;-58
2024/03/11 09:37:45;;;;;;;0.40;0.40;;;;;;;7.46;100.00;97905.41;5056304;28;20639;-58
2024/03/11 09:40:16;;;;;;;0.40;0.40;;;;;;;7.29;100.00;97910.88;5055064;28;20064;-58
2024/03/11 09:42:46;;;;;;;0.40;0.40;;;;;;;7.43;100.00;97917.38;5049891;28;20044;-58
2024/03/11 09:45:13;;;;;;;0.30;0.30;;;;;;;7.42;100.00;97921.13;5053978;28;20064;-57
2024/03/11 09:47:41;;;;;;;0.30;0.30;;;;;;;7.38;100.00;97920.00;5048344;28;20136;-59
2024/03/11 09:50:11;;;;;;;0.40;0.40;;;;;;;7.29;100.00;97921.56;5052106;28;20052;-59
2024/03/11 09:52:38;;;;;;;0.38;0.38;;;;;;;7.58;100.00;97932.72;5059574;28;20072;-60
2024/03/11 09:55:06;;;;;;;0.30;0.30;;;;;;;7.29;100.00;97927.69;5050050;28;20048;-58
2024/03/11 09:57:37;;;;;;;0.30;0.30;;;;;;;7.46;100.00;97930.22;5047311;28;20076;-60
2024/03/11 10:00:12;;;;;;;0.40;0.40;;;;;;;7.44;100.00;97929.69;5051003;28;20141;-57
2024/03/11 10:02:40;;;;;;;0.30;0.30;;;;;;;7.50;100.00;97933.97;5052282;28;20127;-60
2024/03/11 10:05:08;;;;;;;0.30;0.30;;;;;;;7.52;100.00;97931.88;5050261;28;20056;-60
2024/03/11 10:07:37;;;;;;;0.30;0.30;;;;;;;7.45;100.00;97941.94;5055622;28;20085;-58
2024/03/11 10:10:10;;;;;;;0.30;0.30;;;;;;;7.55;100.00;97935.88;5048301;28;20045;-58
2024/03/11 10:12:47;;;;;;;0.20;0.20;;;;;;;7.59;100.00;97942.34;5053931;28;20484;-58
2024/03/11 10:15:27;;;;;;;0.30;0.30;;;;;;;7.52;100.00;97958.53;5053830;28;20596;-58
2024/03/11 10:17:56;;;;;;;0.30;0.30;;;;;;;7.41;100.00;97956.81;5048381;28;20048;-58
2024/03/11 10:20:24;;;;;;;0.30;0.30;;;;;;;7.48;100.00;97964.63;5058555;28;20559;-59
2024/03/11 10:22:55;;;;;;;0.22;0.22;;;;;;;7.60;100.00;97953.81;5058130;28;20394;-59
2024/03/11 10:25:22;;;;;;;0.30;0.30;;;;;;;7.58;100.00;97956.72;5060141;28;20106;-59
2024/03/11 10:27:50;;;;;;;0.40;0.40;;;;;;;7.56;100.00;97964.97;5055253;28;20380;-58
2024/03/11 10:30:20;;;;;;;0.40;0.40;;;;;;;7.52;100.00;97971.88;5050405;28;20049;-58
2024/03/11 10:32:55;;;;;;;0.40;0.40;;;;;;;7.62;100.00;97967.69;5056928;28;20045;-58
2024/03/11 10:35:22;;;;;;;0.30;0.30;;;;;;;7.72;100.00;97967.78;5053078;28;20056;-58
2024/03/11 10:37:50;;;;;;;0.40;0.40;;;;;;;7.56;100.00;97970.31;5058117;28;20736;-59
2024/03/11 10:40:19;;;;;;;0.40;0.40;;;;;;;7.57;100.00;97958.56;5059883;28;20048;-58
2024/03/11 10:42:53;;;;;;;0.40;0.40;;;;;;;7.69;100.00;97973.63;5052341;28;20454;-59
2024/03/11 10:45:30;;;;;;;0.40;0.40;;;;;;;7.72;100.00;97970.44;5049373;28;20049;-58
2024/03/11 10:48:00;;;;;;;0.30;0.30;;;;;;;7.79;100.00;97979.03;5055680;28;20151;-58
2024/03/11 10:50:29;;;;;;;0.30;0.30;;;;;;;7.89;100.00;97980.97;5062549;28;20044;-59
2024/03/11 10:52:57;;;;;;;0.30;0.30;;;;;;;7.69;100.00;97986.94;5054614;28;20356;-60
2024/03/11 10:55:32;;;;;;;0.30;0.30;;;;;;;7.75;100.00;97988.59;5055940;28;20055;-57
2024/03/11 10:58:00;;;;;;;0.30;0.30;;;;;;;7.80;100.00;97990.50;5058767;28;20037;-60
2024/03/11 11:00:33;;;;;;;0.30;0.30;;;;;;;7.64;100.00;97992.22;5055902;28;20491;-57
2024/03/11 11:03:07;;;;;;;0.25;0.25;;;;;;;7.73;100.00;97990.69;5061181;28;20040;-58
2024/03/11 11:05:39;;;;;;;0.40;0.40;;;;;;;7.87;100.00;97997.22;5052202;28;20056;-57
2024/03/11 11:08:08;;;;;;;0.30;0.30;;;;;;;8.02;100.00;97993.06;5054538;28;20430;-58
2024/03/11 11:10:38;;;;;;;0.40;0.40;;;;;;;7.95;100.00;97999.41;5056660;28;20119;-58
2024/03/11 11:13:06;;;;;;;0.45;0.45;;;;;;;8.09;100.00;98002.47;5057398;28;20041;-58
2024/03/11 11:15:35;;;;;;;0.30;0.30;;;;;;;8.32;100.00;98003.16;5054086;28;20037;-59
2024/03/11 11:18:05;;;;;;;0.30;0.30;;;;;;;8.16;100.00;97999.56;5060068;28;20052;-59
2024/03/11 11:20:37;;;;;;;0.40;0.40;;;;;;;8.27;100.00;98005.78;5053749;28;20044;-59
2024/03/11 11:23:05;;;;;;;0.40;0.40;;;;;;;8.25;100.00;98006.03;5058370;28;20503;-59
2024/03/11 11:25:39;;;;;;;0.30;0.30;;;;;;;8.24;100.00;98008.94;5056674;28;20457;-59
2024/03/11 11:28:13;;;;;;;0.30;0.30;;;;;;;8.34;100.00;98004.50;5052753;28;20430;-59
2024/03/11 11:30:42;;;;;;;0.30;0.30;;;;;;;8.24;100.00;98008.94;5052011;28;20037;-59
2024/03/11 11:33:10;;;;;;;0.30;0.30;;;;;;;8.08;100.00;98010.72;5059361;28;20052;-59
2024/03/11 11:35:37;;;;;;;0.30;0.30;;;;;;;8.41;100.00;98007.78;5049889;28;20056;-59
2024/03/11 11:38:29;;;;;;;0.20;0.20;;;;;;;8.30;100.00;98006.06;5051242;28;20466;-59